sensor_id;sensor_type;location;lat;lon;timestamp;temperature;humidity
13049;DHT22;6591;51.446;5.404;2023-06-14T00:01:59;20.70;53.10
13049;DHT22;6591;51.446;5.404;2023-06-14T00:04:26;21.00;53.50
13049;DHT22;6591;51.446;5.404;2023-06-14T00:06:53;20.60;53.30
13049;DHT22;6591;51.446;5.404;2023-06-14T00:09:23;20.50;53.30
13049;DHT22;6591;51.446;5.404;2023-06-14T00:11:50;20.50;53.60
13049;DHT22;6591;51.446;5.404;2023-06-14T00:14:17;20.40;54.60
13049;DHT22;6591;51.446;5.404;2023-06-14T00:16:44;20.40;54.00
13049;DHT22;6591;51.446;5.404;2023-06-14T00:19:12;20.30;54.70
13049;DHT22;6591;51.446;5.404;2023-06-14T00:21:39;20.30;54.30
13049;DHT22;6591;51.446;5.404;2023-06-14T00:24:07;20.20;54.20
13049;DHT22;6591;51.446;5.404;2023-06-14T00:26:34;20.20;55.30
13049;DHT22;6591;51.446;5.404;2023-06-14T00:29:02;20.10;54.50
13049;DHT22;6591;51.446;5.404;2023-06-14T00:31:30;20.10;54.80
13049;DHT22;6591;51.446;5.404;2023-06-14T00:33:57;20.10;54.80
13049;DHT22;6591;51.446;5.404;2023-06-14T00:36:24;20.00;54.60
13049;DHT22;6591;51.446;5.404;2023-06-14T00:38:51;19.90;55.60
13049;DHT22;6591;51.446;5.404;2023-06-14T00:41:18;19.90;54.90
13049;DHT22;6591;51.446;5.404;2023-06-14T00:43:45;19.80;54.80
13049;DHT22;6591;51.446;5.404;2023-06-14T00:46:14;19.80;54.90
13049;DHT22;6591;51.446;5.404;2023-06-14T00:48:42;19.80;55.40
13049;DHT22;6591;51.446;5.404;2023-06-14T00:51:09;19.70;55.20
13049;DHT22;6591;51.446;5.404;2023-06-14T00:53:37;19.60;55.70
13049;DHT22;6591;51.446;5.404;2023-06-14T00:56:06;19.60;55.70
13049;DHT22;6591;51.446;5.404;2023-06-14T00:58:33;19.60;55.70
13049;DHT22;6591;51.446;5.404;2023-06-14T01:01:01;19.50;55.70
13049;DHT22;6591;51.446;5.404;2023-06-14T01:03:29;19.40;55.80
13049;DHT22;6591;51.446;5.404;2023-06-14T01:06:09;19.40;55.80
13049;DHT22;6591;51.446;5.404;2023-06-14T01:12:28;19.40;56.50
13049;DHT22;6591;51.446;5.404;2023-06-14T01:15:04;19.90;56.70
13049;DHT22;6591;51.446;5.404;2023-06-14T01:17:32;19.30;56.20
13049;DHT22;6591;51.446;5.404;2023-06-14T01:20:03;19.20;56.10
13049;DHT22;6591;51.446;5.404;2023-06-14T01:22:36;19.20;56.20
13049;DHT22;6591;51.446;5.404;2023-06-14T01:25:03;19.20;56.00
13049;DHT22;6591;51.446;5.404;2023-06-14T01:27:31;19.20;56.10
13049;DHT22;6591;51.446;5.404;2023-06-14T01:29:59;19.10;56.20
13049;DHT22;6591;51.446;5.404;2023-06-14T01:32:29;19.10;55.90
13049;DHT22;6591;51.446;5.404;2023-06-14T01:34:59;19.00;55.80
13049;DHT22;6591;51.446;5.404;2023-06-14T01:37:28;19.00;55.90
13049;DHT22;6591;51.446;5.404;2023-06-14T01:39:55;19.00;56.10
13049;DHT22;6591;51.446;5.404;2023-06-14T01:42:23;20.40;57.00
13049;DHT22;6591;51.446;5.404;2023-06-14T01:44:52;18.90;56.20
13049;DHT22;6591;51.446;5.404;2023-06-14T01:47:21;18.90;56.40
13049;DHT22;6591;51.446;5.404;2023-06-14T01:49:48;18.90;56.30
13049;DHT22;6591;51.446;5.404;2023-06-14T01:52:16;18.90;56.40
13049;DHT22;6591;51.446;5.404;2023-06-14T01:54:43;18.90;56.10
13049;DHT22;6591;51.446;5.404;2023-06-14T01:57:10;18.90;56.20
13049;DHT22;6591;51.446;5.404;2023-06-14T01:59:38;18.80;56.20
13049;DHT22;6591;51.446;5.404;2023-06-14T02:02:06;18.90;56.20
13049;DHT22;6591;51.446;5.404;2023-06-14T02:04:33;18.90;56.20
13049;DHT22;6591;51.446;5.404;2023-06-14T02:07:00;18.90;56.00
13049;DHT22;6591;51.446;5.404;2023-06-14T02:09:27;19.90;56.50
13049;DHT22;6591;51.446;5.404;2023-06-14T02:11:54;18.90;55.90
13049;DHT22;6591;51.446;5.404;2023-06-14T02:14:21;18.80;56.00
13049;DHT22;6591;51.446;5.404;2023-06-14T02:16:48;18.80;56.10
13049;DHT22;6591;51.446;5.404;2023-06-14T02:19:17;18.80;56.10
13049;DHT22;6591;51.446;5.404;2023-06-14T02:21:45;18.70;56.20
13049;DHT22;6591;51.446;5.404;2023-06-14T02:24:13;18.90;56.30
13049;DHT22;6591;51.446;5.404;2023-06-14T02:26:40;19.70;56.80
13049;DHT22;6591;51.446;5.404;2023-06-14T02:29:14;18.70;56.30
13049;DHT22;6591;51.446;5.404;2023-06-14T02:31:42;18.70;56.60
13049;DHT22;6591;51.446;5.404;2023-06-14T02:34:09;18.60;56.20
13049;DHT22;6591;51.446;5.404;2023-06-14T02:36:36;18.60;56.30
13049;DHT22;6591;51.446;5.404;2023-06-14T02:39:09;18.70;56.40
13049;DHT22;6591;51.446;5.404;2023-06-14T02:41:37;18.50;56.30
13049;DHT22;6591;51.446;5.404;2023-06-14T02:44:05;18.50;56.70
13049;DHT22;6591;51.446;5.404;2023-06-14T02:46:32;18.50;56.60
13049;DHT22;6591;51.446;5.404;2023-06-14T02:49:00;18.40;57.00
13049;DHT22;6591;51.446;5.404;2023-06-14T02:51:27;18.50;56.90
13049;DHT22;6591;51.446;5.404;2023-06-14T02:53:55;18.30;56.70
13049;DHT22;6591;51.446;5.404;2023-06-14T02:56:22;18.30;56.80
13049;DHT22;6591;51.446;5.404;2023-06-14T02:58:50;18.40;56.80
13049;DHT22;6591;51.446;5.404;2023-06-14T03:01:18;18.30;56.80
13049;DHT22;6591;51.446;5.404;2023-06-14T03:03:48;18.20;57.00
13049;DHT22;6591;51.446;5.404;2023-06-14T03:06:15;18.20;57.10
13049;DHT22;6591;51.446;5.404;2023-06-14T03:08:45;18.10;57.10
13049;DHT22;6591;51.446;5.404;2023-06-14T03:11:16;19.40;57.80
13049;DHT22;6591;51.446;5.404;2023-06-14T03:13:47;18.10;57.30
13049;DHT22;6591;51.446;5.404;2023-06-14T03:16:15;18.10;57.30
13049;DHT22;6591;51.446;5.404;2023-06-14T03:18:44;18.50;57.70
13049;DHT22;6591;51.446;5.404;2023-06-14T03:21:11;18.00;57.50
13049;DHT22;6591;51.446;5.404;2023-06-14T03:23:43;17.90;57.30
13049;DHT22;6591;51.446;5.404;2023-06-14T03:26:11;17.80;57.60
13049;DHT22;6591;51.446;5.404;2023-06-14T03:28:42;17.80;57.60
13049;DHT22;6591;51.446;5.404;2023-06-14T03:31:09;17.80;57.70
13049;DHT22;6591;51.446;5.404;2023-06-14T03:33:37;17.80;57.70
13049;DHT22;6591;51.446;5.404;2023-06-14T03:36:05;17.70;57.70
13049;DHT22;6591;51.446;5.404;2023-06-14T03:38:33;17.70;57.80
13049;DHT22;6591;51.446;5.404;2023-06-14T03:41:03;18.10;58.10
13049;DHT22;6591;51.446;5.404;2023-06-14T03:43:31;17.60;57.90
13049;DHT22;6591;51.446;5.404;2023-06-14T03:46:00;17.50;58.10
13049;DHT22;6591;51.446;5.404;2023-06-14T03:48:29;17.50;58.20
13049;DHT22;6591;51.446;5.404;2023-06-14T03:50:58;17.50;58.30
13049;DHT22;6591;51.446;5.404;2023-06-14T03:53:28;17.40;58.40
13049;DHT22;6591;51.446;5.404;2023-06-14T03:55:57;17.40;59.30
13049;DHT22;6591;51.446;5.404;2023-06-14T03:58:32;17.40;58.80
13049;DHT22;6591;51.446;5.404;2023-06-14T04:01:00;17.30;58.80
13049;DHT22;6591;51.446;5.404;2023-06-14T04:03:30;17.30;59.00
13049;DHT22;6591;51.446;5.404;2023-06-14T04:06:00;17.30;59.10
13049;DHT22;6591;51.446;5.404;2023-06-14T04:08:27;17.30;59.40
13049;DHT22;6591;51.446;5.404;2023-06-14T04:10:56;17.70;59.50
13049;DHT22;6591;51.446;5.404;2023-06-14T04:13:23;17.30;59.40
13049;DHT22;6591;51.446;5.404;2023-06-14T04:15:50;18.60;60.00
13049;DHT22;6591;51.446;5.404;2023-06-14T04:18:24;17.40;59.60
13049;DHT22;6591;51.446;5.404;2023-06-14T04:20:51;17.90;60.50
13049;DHT22;6591;51.446;5.404;2023-06-14T04:23:20;17.40;59.60
13049;DHT22;6591;51.446;5.404;2023-06-14T04:25:48;17.30;59.60
13049;DHT22;6591;51.446;5.404;2023-06-14T04:28:16;17.50;59.80
13049;DHT22;6591;51.446;5.404;2023-06-14T04:30:46;17.40;59.90
13049;DHT22;6591;51.446;5.404;2023-06-14T04:33:16;17.50;60.00
13049;DHT22;6591;51.446;5.404;2023-06-14T04:35:53;17.50;60.00
13049;DHT22;6591;51.446;5.404;2023-06-14T04:38:23;17.50;59.90
13049;DHT22;6591;51.446;5.404;2023-06-14T04:40:52;17.60;60.10
13049;DHT22;6591;51.446;5.404;2023-06-14T04:43:21;17.60;60.00
13049;DHT22;6591;51.446;5.404;2023-06-14T04:45:56;17.70;60.10
13049;DHT22;6591;51.446;5.404;2023-06-14T04:48:25;17.80;60.20
13049;DHT22;6591;51.446;5.404;2023-06-14T04:50:53;17.80;60.30
13049;DHT22;6591;51.446;5.404;2023-06-14T04:53:23;17.90;60.20
13049;DHT22;6591;51.446;5.404;2023-06-14T04:55:54;18.00;60.10
13049;DHT22;6591;51.446;5.404;2023-06-14T04:58:22;18.40;60.40
13049;DHT22;6591;51.446;5.404;2023-06-14T05:00:49;18.20;60.00
13049;DHT22;6591;51.446;5.404;2023-06-14T05:03:16;18.20;60.00
13049;DHT22;6591;51.446;5.404;2023-06-14T05:05:46;18.30;59.90
13049;DHT22;6591;51.446;5.404;2023-06-14T05:08:13;18.40;60.00
13049;DHT22;6591;51.446;5.404;2023-06-14T05:10:40;18.50;60.70
13049;DHT22;6591;51.446;5.404;2023-06-14T05:13:08;18.60;59.90
13049;DHT22;6591;51.446;5.404;2023-06-14T05:15:35;19.20;60.10
13049;DHT22;6591;51.446;5.404;2023-06-14T05:18:02;18.80;59.80
13049;DHT22;6591;51.446;5.404;2023-06-14T05:20:29;18.90;59.70
13049;DHT22;6591;51.446;5.404;2023-06-14T05:22:57;19.30;59.60
13049;DHT22;6591;51.446;5.404;2023-06-14T05:25:24;19.10;59.30
13049;DHT22;6591;51.446;5.404;2023-06-14T05:27:51;19.20;59.20
13049;DHT22;6591;51.446;5.404;2023-06-14T05:30:18;19.60;59.20
13049;DHT22;6591;51.446;5.404;2023-06-14T05:32:45;19.40;59.10
13049;DHT22;6591;51.446;5.404;2023-06-14T05:35:13;19.60;58.80
13049;DHT22;6591;51.446;5.404;2023-06-14T05:37:41;19.70;58.70
13049;DHT22;6591;51.446;5.404;2023-06-14T05:40:09;20.40;58.80
13049;DHT22;6591;51.446;5.404;2023-06-14T05:42:39;19.90;58.50
13049;DHT22;6591;51.446;5.404;2023-06-14T05:45:06;20.00;58.20
13049;DHT22;6591;51.446;5.404;2023-06-14T05:47:34;20.20;58.20
13049;DHT22;6591;51.446;5.404;2023-06-14T05:50:01;20.30;57.90
13049;DHT22;6591;51.446;5.404;2023-06-14T05:52:28;20.40;57.80
13049;DHT22;6591;51.446;5.404;2023-06-14T05:54:56;20.50;57.80
13049;DHT22;6591;51.446;5.404;2023-06-14T05:57:23;20.70;57.50
13049;DHT22;6591;51.446;5.404;2023-06-14T05:59:50;20.70;57.40
13049;DHT22;6591;51.446;5.404;2023-06-14T06:02:17;21.00;57.40
13049;DHT22;6591;51.446;5.404;2023-06-14T06:04:45;21.10;57.20
13049;DHT22;6591;51.446;5.404;2023-06-14T06:07:12;21.10;57.00
13049;DHT22;6591;51.446;5.404;2023-06-14T06:09:39;21.20;56.80
13049;DHT22;6591;51.446;5.404;2023-06-14T06:12:07;21.30;56.80
13049;DHT22;6591;51.446;5.404;2023-06-14T06:14:34;21.40;56.80
13049;DHT22;6591;51.446;5.404;2023-06-14T06:17:01;21.60;56.60
13049;DHT22;6591;51.446;5.404;2023-06-14T06:19:28;21.70;56.40
13049;DHT22;6591;51.446;5.404;2023-06-14T06:21:55;21.90;56.20
13049;DHT22;6591;51.446;5.404;2023-06-14T06:24:22;22.10;55.90
13049;DHT22;6591;51.446;5.404;2023-06-14T06:26:49;22.20;55.70
13049;DHT22;6591;51.446;5.404;2023-06-14T06:29:16;22.30;55.40
13049;DHT22;6591;51.446;5.404;2023-06-14T06:31:44;22.50;55.30
13049;DHT22;6591;51.446;5.404;2023-06-14T06:34:12;22.70;55.10
13049;DHT22;6591;51.446;5.404;2023-06-14T06:36:39;22.70;54.80
13049;DHT22;6591;51.446;5.404;2023-06-14T06:39:06;22.80;54.70
13049;DHT22;6591;51.446;5.404;2023-06-14T06:41:40;23.00;54.50
13049;DHT22;6591;51.446;5.404;2023-06-14T06:44:07;23.00;54.50
13049;DHT22;6591;51.446;5.404;2023-06-14T06:46:38;23.20;54.10
13049;DHT22;6591;51.446;5.404;2023-06-14T06:49:10;23.40;53.60
13049;DHT22;6591;51.446;5.404;2023-06-14T06:51:41;23.60;53.50
13049;DHT22;6591;51.446;5.404;2023-06-14T06:54:10;23.70;53.40
13049;DHT22;6591;51.446;5.404;2023-06-14T06:56:38;23.90;53.20
13049;DHT22;6591;51.446;5.404;2023-06-14T06:59:05;24.10;53.10
13049;DHT22;6591;51.446;5.404;2023-06-14T07:01:32;25.00;52.90
13049;DHT22;6591;51.446;5.404;2023-06-14T07:04:00;24.50;52.30
13049;DHT22;6591;51.446;5.404;2023-06-14T07:06:29;24.70;51.30
13049;DHT22;6591;51.446;5.404;2023-06-14T07:08:56;24.90;50.90
13049;DHT22;6591;51.446;5.404;2023-06-14T07:11:28;25.10;50.90
13049;DHT22;6591;51.446;5.404;2023-06-14T07:13:55;25.20;50.60
13049;DHT22;6591;51.446;5.404;2023-06-14T07:16:22;25.40;50.60
13049;DHT22;6591;51.446;5.404;2023-06-14T07:18:50;25.50;50.10
13049;DHT22;6591;51.446;5.404;2023-06-14T07:21:17;25.60;49.70
13049;DHT22;6591;51.446;5.404;2023-06-14T07:23:44;25.70;49.40
13049;DHT22;6591;51.446;5.404;2023-06-14T07:26:11;25.80;49.20
13049;DHT22;6591;51.446;5.404;2023-06-14T07:28:38;25.90;48.80
13049;DHT22;6591;51.446;5.404;2023-06-14T07:31:06;25.90;49.30
13049;DHT22;6591;51.446;5.404;2023-06-14T07:33:33;26.00;48.70
13049;DHT22;6591;51.446;5.404;2023-06-14T07:36:00;26.10;49.00
13049;DHT22;6591;51.446;5.404;2023-06-14T07:38:28;26.20;48.70
13049;DHT22;6591;51.446;5.404;2023-06-14T07:40:55;26.40;48.70
13049;DHT22;6591;51.446;5.404;2023-06-14T07:43:22;26.60;47.50
13049;DHT22;6591;51.446;5.404;2023-06-14T07:45:49;26.80;46.90
13049;DHT22;6591;51.446;5.404;2023-06-14T07:48:31;26.90;47.00
13049;DHT22;6591;51.446;5.404;2023-06-14T07:50:58;27.10;46.50
13049;DHT22;6591;51.446;5.404;2023-06-14T07:53:28;27.20;46.80
13049;DHT22;6591;51.446;5.404;2023-06-14T07:55:55;27.30;46.40
13049;DHT22;6591;51.446;5.404;2023-06-14T07:58:22;27.40;46.40
13049;DHT22;6591;51.446;5.404;2023-06-14T08:00:49;27.50;46.20
13049;DHT22;6591;51.446;5.404;2023-06-14T08:03:16;27.60;46.00
13049;DHT22;6591;51.446;5.404;2023-06-14T08:05:45;27.70;45.70
13049;DHT22;6591;51.446;5.404;2023-06-14T08:08:12;27.70;45.80
13049;DHT22;6591;51.446;5.404;2023-06-14T08:10:39;27.90;46.20
13049;DHT22;6591;51.446;5.404;2023-06-14T08:13:06;28.10;46.00
13049;DHT22;6591;51.446;5.404;2023-06-14T08:15:33;28.30;45.10
13049;DHT22;6591;51.446;5.404;2023-06-14T08:18:00;28.40;44.60
13049;DHT22;6591;51.446;5.404;2023-06-14T08:20:28;28.50;44.30
13049;DHT22;6591;51.446;5.404;2023-06-14T08:22:57;28.60;44.30
13049;DHT22;6591;51.446;5.404;2023-06-14T08:25:24;28.70;44.50
13049;DHT22;6591;51.446;5.404;2023-06-14T08:27:52;28.80;44.40
13049;DHT22;6591;51.446;5.404;2023-06-14T08:30:19;29.00;44.30
13049;DHT22;6591;51.446;5.404;2023-06-14T08:32:46;29.10;43.40
13049;DHT22;6591;51.446;5.404;2023-06-14T08:35:22;29.20;43.50
13049;DHT22;6591;51.446;5.404;2023-06-14T08:37:51;29.30;43.00
13049;DHT22;6591;51.446;5.404;2023-06-14T08:40:23;29.40;43.10
13049;DHT22;6591;51.446;5.404;2023-06-14T08:42:52;29.50;42.80
13049;DHT22;6591;51.446;5.404;2023-06-14T08:45:24;29.60;43.20
13049;DHT22;6591;51.446;5.404;2023-06-14T08:47:55;29.80;42.60
13049;DHT22;6591;51.446;5.404;2023-06-14T08:50:28;29.90;42.80
13049;DHT22;6591;51.446;5.404;2023-06-14T08:53:01;30.20;42.50
13049;DHT22;6591;51.446;5.404;2023-06-14T08:55:31;30.40;42.30
13049;DHT22;6591;51.446;5.404;2023-06-14T08:58:04;30.60;42.20
13049;DHT22;6591;51.446;5.404;2023-06-14T09:00:33;30.80;41.70
13049;DHT22;6591;51.446;5.404;2023-06-14T09:03:01;31.00;41.70
13049;DHT22;6591;51.446;5.404;2023-06-14T09:05:30;31.20;41.10
13049;DHT22;6591;51.446;5.404;2023-06-14T09:07:57;31.40;39.30
13049;DHT22;6591;51.446;5.404;2023-06-14T09:10:32;31.40;39.50
13049;DHT22;6591;51.446;5.404;2023-06-14T09:13:02;31.40;39.40
13049;DHT22;6591;51.446;5.404;2023-06-14T09:15:30;31.40;39.70
13049;DHT22;6591;51.446;5.404;2023-06-14T09:18:01;31.50;39.30
13049;DHT22;6591;51.446;5.404;2023-06-14T09:20:30;31.60;39.30
13049;DHT22;6591;51.446;5.404;2023-06-14T09:22:58;31.80;39.50
13049;DHT22;6591;51.446;5.404;2023-06-14T09:25:25;31.90;38.70
13049;DHT22;6591;51.446;5.404;2023-06-14T09:28:09;32.00;38.30
13049;DHT22;6591;51.446;5.404;2023-06-14T09:30:38;32.10;37.50
13049;DHT22;6591;51.446;5.404;2023-06-14T09:33:06;32.20;36.30
13049;DHT22;6591;51.446;5.404;2023-06-14T09:35:33;32.20;35.90
13049;DHT22;6591;51.446;5.404;2023-06-14T09:38:01;32.00;36.10
13049;DHT22;6591;51.446;5.404;2023-06-14T09:40:28;31.90;35.10
13049;DHT22;6591;51.446;5.404;2023-06-14T09:42:55;31.80;33.90
13049;DHT22;6591;51.446;5.404;2023-06-14T09:45:25;31.60;33.70
13049;DHT22;6591;51.446;5.404;2023-06-14T09:47:57;31.40;34.80
13049;DHT22;6591;51.446;5.404;2023-06-14T09:50:28;31.40;35.10
13049;DHT22;6591;51.446;5.404;2023-06-14T09:52:58;31.50;34.40
13049;DHT22;6591;51.446;5.404;2023-06-14T09:55:31;31.50;33.40
13049;DHT22;6591;51.446;5.404;2023-06-14T09:58:05;31.40;34.00
13049;DHT22;6591;51.446;5.404;2023-06-14T10:00:35;31.40;34.00
13049;DHT22;6591;51.446;5.404;2023-06-14T10:03:11;31.40;33.90
13049;DHT22;6591;51.446;5.404;2023-06-14T10:05:41;31.40;34.10
13049;DHT22;6591;51.446;5.404;2023-06-14T10:08:18;31.50;34.50
13049;DHT22;6591;51.446;5.404;2023-06-14T10:10:47;31.60;33.70
13049;DHT22;6591;51.446;5.404;2023-06-14T10:13:14;31.70;33.90
13049;DHT22;6591;51.446;5.404;2023-06-14T10:16:12;31.80;34.10
13049;DHT22;6591;51.446;5.404;2023-06-14T10:18:51;31.80;33.50
13049;DHT22;6591;51.446;5.404;2023-06-14T10:24:08;32.20;34.00
13049;DHT22;6591;51.446;5.404;2023-06-14T10:26:54;32.40;34.30
13049;DHT22;6591;51.446;5.404;2023-06-14T10:29:27;32.70;32.70
13049;DHT22;6591;51.446;5.404;2023-06-14T10:32:00;32.80;32.10
13049;DHT22;6591;51.446;5.404;2023-06-14T10:34:28;32.80;32.80
13049;DHT22;6591;51.446;5.404;2023-06-14T10:37:12;32.80;32.80
13049;DHT22;6591;51.446;5.404;2023-06-14T10:39:44;32.80;32.80
13049;DHT22;6591;51.446;5.404;2023-06-14T10:42:15;32.80;33.30
13049;DHT22;6591;51.446;5.404;2023-06-14T10:44:49;33.00;33.30
13049;DHT22;6591;51.446;5.404;2023-06-14T10:47:28;33.10;32.90
13049;DHT22;6591;51.446;5.404;2023-06-14T10:52:31;33.30;32.50
13049;DHT22;6591;51.446;5.404;2023-06-14T10:55:03;33.20;32.10
13049;DHT22;6591;51.446;5.404;2023-06-14T10:57:35;33.20;32.40
13049;DHT22;6591;51.446;5.404;2023-06-14T11:00:21;33.10;31.90
13049;DHT22;6591;51.446;5.404;2023-06-14T11:05:56;33.00;32.50
13049;DHT22;6591;51.446;5.404;2023-06-14T11:11:22;33.20;32.20
13049;DHT22;6591;51.446;5.404;2023-06-14T11:13:51;33.20;31.70
13049;DHT22;6591;51.446;5.404;2023-06-14T11:16:19;33.10;32.10
13049;DHT22;6591;51.446;5.404;2023-06-14T11:18:46;33.10;32.10
13049;DHT22;6591;51.446;5.404;2023-06-14T11:21:17;33.00;31.80
13049;DHT22;6591;51.446;5.404;2023-06-14T11:23:49;32.90;31.80
13049;DHT22;6591;51.446;5.404;2023-06-14T11:26:25;32.90;32.10
13049;DHT22;6591;51.446;5.404;2023-06-14T11:29:00;32.80;31.20
13049;DHT22;6591;51.446;5.404;2023-06-14T11:31:28;32.70;31.80
13049;DHT22;6591;51.446;5.404;2023-06-14T11:33:58;32.50;32.30
13049;DHT22;6591;51.446;5.404;2023-06-14T11:36:30;32.40;32.50
13049;DHT22;6591;51.446;5.404;2023-06-14T11:39:02;32.30;33.00
13049;DHT22;6591;51.446;5.404;2023-06-14T11:41:41;32.30;33.40
13049;DHT22;6591;51.446;5.404;2023-06-14T11:44:10;32.30;33.50
13049;DHT22;6591;51.446;5.404;2023-06-14T11:46:38;32.20;33.70
13049;DHT22;6591;51.446;5.404;2023-06-14T11:49:07;32.20;33.60
13049;DHT22;6591;51.446;5.404;2023-06-14T11:51:36;32.10;33.80
13049;DHT22;6591;51.446;5.404;2023-06-14T11:54:05;32.10;33.90
13049;DHT22;6591;51.446;5.404;2023-06-14T11:56:33;32.20;34.10
13049;DHT22;6591;51.446;5.404;2023-06-14T11:59:02;32.30;33.90
13049;DHT22;6591;51.446;5.404;2023-06-14T12:01:36;32.30;33.80
13049;DHT22;6591;51.446;5.404;2023-06-14T12:04:05;32.40;33.90
13049;DHT22;6591;51.446;5.404;2023-06-14T12:06:33;32.50;34.20
13049;DHT22;6591;51.446;5.404;2023-06-14T12:09:03;31.90;33.20
13049;DHT22;6591;51.446;5.404;2023-06-14T12:11:35;32.70;33.60
13049;DHT22;6591;51.446;5.404;2023-06-14T12:14:04;32.80;33.70
13049;DHT22;6591;51.446;5.404;2023-06-14T12:16:38;32.80;33.60
13049;DHT22;6591;51.446;5.404;2023-06-14T12:19:11;32.90;33.50
13049;DHT22;6591;51.446;5.404;2023-06-14T12:21:40;32.90;33.80
13049;DHT22;6591;51.446;5.404;2023-06-14T12:24:09;33.10;33.60
13049;DHT22;6591;51.446;5.404;2023-06-14T12:26:40;33.20;33.70
13049;DHT22;6591;51.446;5.404;2023-06-14T12:29:08;33.40;34.00
13049;DHT22;6591;51.446;5.404;2023-06-14T12:31:35;33.60;33.90
13049;DHT22;6591;51.446;5.404;2023-06-14T12:34:03;33.90;33.70
13049;DHT22;6591;51.446;5.404;2023-06-14T12:36:30;34.20;33.30
13049;DHT22;6591;51.446;5.404;2023-06-14T12:38:58;34.30;32.70
13049;DHT22;6591;51.446;5.404;2023-06-14T12:41:26;34.30;32.50
13049;DHT22;6591;51.446;5.404;2023-06-14T12:43:54;34.20;32.10
13049;DHT22;6591;51.446;5.404;2023-06-14T12:46:21;34.00;32.00
13049;DHT22;6591;51.446;5.404;2023-06-14T12:48:48;33.90;32.40
13049;DHT22;6591;51.446;5.404;2023-06-14T12:51:16;33.80;32.40
13049;DHT22;6591;51.446;5.404;2023-06-14T12:53:43;33.70;32.50
13049;DHT22;6591;51.446;5.404;2023-06-14T12:56:10;33.80;32.50
13049;DHT22;6591;51.446;5.404;2023-06-14T12:58:37;33.90;32.50
13049;DHT22;6591;51.446;5.404;2023-06-14T13:01:04;34.00;32.60
13049;DHT22;6591;51.446;5.404;2023-06-14T13:03:32;34.20;31.80
13049;DHT22;6591;51.446;5.404;2023-06-14T13:06:01;34.30;32.00
13049;DHT22;6591;51.446;5.404;2023-06-14T13:08:28;34.40;31.80
13049;DHT22;6591;51.446;5.404;2023-06-14T13:10:55;34.50;32.10
13049;DHT22;6591;51.446;5.404;2023-06-14T13:13:23;34.80;31.70
13049;DHT22;6591;51.446;5.404;2023-06-14T13:15:50;35.00;31.80
13049;DHT22;6591;51.446;5.404;2023-06-14T13:18:17;35.30;31.10
13049;DHT22;6591;51.446;5.404;2023-06-14T13:20:46;35.40;31.20
13049;DHT22;6591;51.446;5.404;2023-06-14T13:23:14;35.50;30.60
13049;DHT22;6591;51.446;5.404;2023-06-14T13:25:42;35.50;30.60
13049;DHT22;6591;51.446;5.404;2023-06-14T13:28:09;35.50;30.90
13049;DHT22;6591;51.446;5.404;2023-06-14T13:30:37;35.50;31.20
13049;DHT22;6591;51.446;5.404;2023-06-14T13:33:04;35.60;31.10
13049;DHT22;6591;51.446;5.404;2023-06-14T13:35:31;35.70;31.00
13049;DHT22;6591;51.446;5.404;2023-06-14T13:37:58;35.70;31.20
13049;DHT22;6591;51.446;5.404;2023-06-14T13:40:25;35.80;30.70
13049;DHT22;6591;51.446;5.404;2023-06-14T13:42:52;35.70;30.20
13049;DHT22;6591;51.446;5.404;2023-06-14T13:45:19;35.60;30.50
13049;DHT22;6591;51.446;5.404;2023-06-14T13:47:46;35.50;30.70
13049;DHT22;6591;51.446;5.404;2023-06-14T13:50:15;35.50;30.90
13049;DHT22;6591;51.446;5.404;2023-06-14T13:52:43;35.60;30.90
13049;DHT22;6591;51.446;5.404;2023-06-14T13:55:10;35.70;30.50
13049;DHT22;6591;51.446;5.404;2023-06-14T13:57:37;35.80;30.40
13049;DHT22;6591;51.446;5.404;2023-06-14T14:00:04;35.80;30.10
13049;DHT22;6591;51.446;5.404;2023-06-14T14:02:41;35.80;30.10
13049;DHT22;6591;51.446;5.404;2023-06-14T14:05:09;35.70;30.20
13049;DHT22;6591;51.446;5.404;2023-06-14T14:07:36;35.70;30.60
13049;DHT22;6591;51.446;5.404;2023-06-14T14:10:05;35.70;31.10
13049;DHT22;6591;51.446;5.404;2023-06-14T14:12:32;35.80;31.10
13049;DHT22;6591;51.446;5.404;2023-06-14T14:14:59;35.90;31.70
13049;DHT22;6591;51.446;5.404;2023-06-14T14:17:26;35.90;31.00
13049;DHT22;6591;51.446;5.404;2023-06-14T14:19:54;35.90;31.10
13049;DHT22;6591;51.446;5.404;2023-06-14T14:22:21;35.90;31.10
13049;DHT22;6591;51.446;5.404;2023-06-14T14:24:48;35.90;30.80
13049;DHT22;6591;51.446;5.404;2023-06-14T14:27:15;36.10;31.20
13049;DHT22;6591;51.446;5.404;2023-06-14T14:29:42;36.30;30.70
13049;DHT22;6591;51.446;5.404;2023-06-14T14:32:09;36.50;30.50
13049;DHT22;6591;51.446;5.404;2023-06-14T14:34:40;36.60;30.50
13049;DHT22;6591;51.446;5.404;2023-06-14T14:37:07;36.80;30.60
13049;DHT22;6591;51.446;5.404;2023-06-14T14:39:36;37.00;30.00
13049;DHT22;6591;51.446;5.404;2023-06-14T14:42:03;37.10;29.70
13049;DHT22;6591;51.446;5.404;2023-06-14T14:44:31;37.20;29.70
13049;DHT22;6591;51.446;5.404;2023-06-14T14:46:58;37.20;29.80
13049;DHT22;6591;51.446;5.404;2023-06-14T14:49:25;37.20;30.00
13049;DHT22;6591;51.446;5.404;2023-06-14T14:51:52;37.40;30.20
13049;DHT22;6591;51.446;5.404;2023-06-14T14:54:19;37.50;29.90
13049;DHT22;6591;51.446;5.404;2023-06-14T14:56:46;37.60;29.40
13049;DHT22;6591;51.446;5.404;2023-06-14T14:59:13;37.40;29.20
13049;DHT22;6591;51.446;5.404;2023-06-14T15:01:40;37.20;29.30
13049;DHT22;6591;51.446;5.404;2023-06-14T15:04:08;37.00;29.40
13049;DHT22;6591;51.446;5.404;2023-06-14T15:06:35;36.80;29.60
13049;DHT22;6591;51.446;5.404;2023-06-14T15:09:06;36.80;29.90
13049;DHT22;6591;51.446;5.404;2023-06-14T15:11:33;36.90;30.00
13049;DHT22;6591;51.446;5.404;2023-06-14T15:14:00;37.00;29.80
13049;DHT22;6591;51.446;5.404;2023-06-14T15:16:27;37.00;29.80
13049;DHT22;6591;51.446;5.404;2023-06-14T15:18:57;36.90;29.50
13049;DHT22;6591;51.446;5.404;2023-06-14T15:21:24;36.80;29.80
13049;DHT22;6591;51.446;5.404;2023-06-14T15:23:51;36.80;30.00
13049;DHT22;6591;51.446;5.404;2023-06-14T15:26:20;36.90;30.00
13049;DHT22;6591;51.446;5.404;2023-06-14T15:28:47;37.00;30.00
13049;DHT22;6591;51.446;5.404;2023-06-14T15:31:14;37.20;29.90
13049;DHT22;6591;51.446;5.404;2023-06-14T15:33:41;37.40;29.80
13049;DHT22;6591;51.446;5.404;2023-06-14T15:36:09;37.50;29.70
13049;DHT22;6591;51.446;5.404;2023-06-14T15:38:37;37.50;29.80
13049;DHT22;6591;51.446;5.404;2023-06-14T15:41:05;37.50;30.00
13049;DHT22;6591;51.446;5.404;2023-06-14T15:43:33;37.60;30.00
13049;DHT22;6591;51.446;5.404;2023-06-14T15:46:00;37.70;30.10
13049;DHT22;6591;51.446;5.404;2023-06-14T15:48:27;37.80;29.90
13049;DHT22;6591;51.446;5.404;2023-06-14T15:50:54;37.90;29.70
13049;DHT22;6591;51.446;5.404;2023-06-14T15:53:21;37.90;29.20
13049;DHT22;6591;51.446;5.404;2023-06-14T15:55:49;37.80;29.10
13049;DHT22;6591;51.446;5.404;2023-06-14T15:58:16;37.70;28.30
13049;DHT22;6591;51.446;5.404;2023-06-14T16:00:43;37.70;29.10
13049;DHT22;6591;51.446;5.404;2023-06-14T16:03:10;37.60;29.30
13049;DHT22;6591;51.446;5.404;2023-06-14T16:05:37;37.60;29.50
13049;DHT22;6591;51.446;5.404;2023-06-14T16:08:04;37.60;29.50
13049;DHT22;6591;51.446;5.404;2023-06-14T16:10:32;37.70;29.60